createdAt,value
2019-01-02T00:00:15.971Z,98792.00
2019-01-02T00:02:43.688Z,98784.00
2019-01-02T00:05:11.328Z,98783.00
2019-01-02T00:07:38.898Z,98786.00
2019-01-02T00:10:07.290Z,98784.00
2019-01-02T00:12:34.880Z,98779.00
2019-01-02T00:15:02.509Z,98783.00
2019-01-02T00:17:30.250Z,98779.00
2019-01-02T00:22:24.541Z,98779.00
2019-01-02T00:24:52.258Z,98772.00
2019-01-02T00:27:19.871Z,98781.00
2019-01-02T00:29:47.639Z,98796.00
2019-01-02T00:32:15.130Z,98802.00
2019-01-02T00:34:43.274Z,98813.00
2019-01-02T00:37:10.718Z,98805.00
2019-01-02T00:39:38.660Z,98808.00
2019-01-02T00:42:06.179Z,98811.00
2019-01-02T00:44:34.021Z,98812.00
2019-01-02T00:47:01.719Z,98818.00
2019-01-02T00:49:29.159Z,98817.00
2019-01-02T00:51:56.559Z,98807.00
2019-01-02T00:54:24.138Z,98802.00
2019-01-02T00:56:51.709Z,98802.00
2019-01-02T00:59:20.041Z,98816.00
2019-01-02T01:01:47.916Z,98811.00
2019-01-02T01:04:15.818Z,98810.00
2019-01-02T01:06:43.939Z,98816.00
2019-01-02T01:09:11.957Z,98829.00
2019-01-02T01:11:39.599Z,98833.00
2019-01-02T01:14:07.649Z,98828.00
2019-01-02T01:16:35.170Z,98823.00
2019-01-02T01:19:03.848Z,98819.00
2019-01-02T01:21:31.358Z,98809.00
2019-01-02T01:23:59.478Z,98815.00
2019-01-02T01:26:27.110Z,98813.00
2019-01-02T01:28:54.630Z,98811.00
2019-01-02T01:31:22.198Z,98811.00
2019-01-02T01:33:49.567Z,98817.00
2019-01-02T01:36:17.660Z,98806.00
2019-01-02T01:38:45.097Z,98826.00
2019-01-02T01:41:12.679Z,98843.00
2019-01-02T01:43:40.598Z,98861.00
2019-01-02T01:46:08.138Z,98845.00
2019-01-02T01:48:35.968Z,98848.00
2019-01-02T01:51:03.628Z,98863.00
2019-01-02T01:53:31.079Z,98892.00
2019-01-02T01:55:58.838Z,98888.00
2019-01-02T01:58:26.688Z,98890.00
2019-01-02T02:00:54.735Z,98882.00
2019-01-02T02:03:22.470Z,98859.00
2019-01-02T02:05:50.058Z,98859.00
2019-01-02T02:08:17.808Z,98843.00
2019-01-02T02:10:45.181Z,98822.00
2019-01-02T02:13:13.389Z,98827.00
2019-01-02T02:15:41.688Z,98842.00
2019-01-02T02:18:09.068Z,98826.00
2019-01-02T02:20:54.998Z,98821.00
2019-01-02T02:23:22.549Z,98825.00
2019-01-02T02:25:50.179Z,98829.00
2019-01-02T02:28:17.458Z,98853.00
2019-01-02T02:30:44.866Z,98859.00
2019-01-02T02:33:12.641Z,98868.00
2019-01-02T02:35:41.210Z,98871.00
2019-01-02T02:38:09.229Z,98880.00
2019-01-02T02:40:36.560Z,98884.00
2019-01-02T02:43:04.108Z,98891.00
2019-01-02T02:45:31.879Z,98878.00
2019-01-02T02:47:59.680Z,98870.00
2019-01-02T02:50:28.242Z,98880.00
2019-01-02T02:52:56.070Z,98886.00
2019-01-02T02:55:23.599Z,98895.00
2019-01-02T02:57:51.398Z,98882.00
2019-01-02T03:00:18.900Z,98881.00
2019-01-02T03:02:46.428Z,98877.00
2019-01-02T03:05:16.089Z,98873.00
2019-01-02T03:07:44.199Z,98890.00
2019-01-02T03:10:14.758Z,98895.00
2019-01-02T03:12:42.841Z,98914.00
2019-01-02T03:15:11.460Z,98903.00
2019-01-02T03:17:39.117Z,98919.00
2019-01-02T03:20:12.928Z,98925.00
2019-01-02T03:22:41.240Z,98916.00
2019-01-02T03:25:11.610Z,98919.00
2019-01-02T03:27:40.049Z,98916.00
2019-01-02T03:30:12.399Z,98917.00
2019-01-02T03:32:40.088Z,98892.00
2019-01-02T03:35:08.748Z,98904.00
2019-01-02T03:37:36.340Z,98905.00
2019-01-02T03:40:08.649Z,98909.00
2019-01-02T03:42:36.668Z,98913.00
2019-01-02T03:45:08.939Z,98910.00
2019-01-02T03:47:36.838Z,98921.00
2019-01-02T03:50:09.568Z,98925.00
2019-01-02T03:52:37.140Z,98929.00
2019-01-02T03:55:07.922Z,98927.00
2019-01-02T03:57:35.558Z,98938.00
2019-01-02T04:03:14.718Z,98932.00
2019-01-02T04:05:42.944Z,98939.00
2019-01-02T04:08:10.979Z,98927.00
2019-01-02T04:10:38.918Z,98937.00
2019-01-02T04:13:06.380Z,98948.00
2019-01-02T04:15:34.030Z,98954.00
2019-01-02T04:18:01.659Z,98949.00
2019-01-02T04:20:29.470Z,98968.00
2019-01-02T04:22:56.839Z,98961.00
2019-01-02T04:25:24.149Z,98960.00
2019-01-02T04:27:51.557Z,98967.00
2019-01-02T04:30:19.039Z,98972.00
2019-01-02T04:32:46.569Z,98968.00
2019-01-02T04:35:13.725Z,98948.00
2019-01-02T04:37:41.318Z,98968.00
2019-01-02T04:40:11.600Z,98986.00
2019-01-02T04:42:39.198Z,98980.00
2019-01-02T04:45:09.478Z,98985.00
2019-01-02T04:47:36.951Z,98968.00
2019-01-02T04:50:08.959Z,98974.00
2019-01-02T04:52:36.700Z,98971.00
2019-01-02T04:55:05.030Z,98961.00
2019-01-02T04:57:32.360Z,98964.00
2019-01-02T05:00:00.030Z,98970.00
2019-01-02T05:04:54.780Z,98969.00
2019-01-02T05:07:22.272Z,98969.00
2019-01-02T05:09:49.890Z,98983.00
2019-01-02T05:12:17.402Z,98990.00
2019-01-02T05:14:45.088Z,98987.00
2019-01-02T05:17:12.759Z,98984.00
2019-01-02T05:19:40.211Z,98984.00
2019-01-02T05:22:07.819Z,98987.00
2019-01-02T05:24:35.199Z,98991.00
2019-01-02T05:27:02.561Z,98991.00
2019-01-02T05:29:30.209Z,98987.00
2019-01-02T05:31:57.818Z,98990.00
2019-01-02T05:34:25.342Z,98995.00
2019-01-02T05:36:52.901Z,98993.00
2019-01-02T05:39:20.638Z,98995.00
2019-01-02T05:41:48.128Z,98995.00
2019-01-02T05:44:15.720Z,98972.00
2019-01-02T05:46:43.127Z,98989.00
2019-01-02T05:49:10.479Z,98995.00
2019-01-02T05:51:37.890Z,98992.00
2019-01-02T05:54:05.899Z,98995.00
2019-01-02T05:56:33.519Z,98995.00
2019-01-02T05:59:00.829Z,98998.00
2019-01-02T06:01:28.549Z,98991.00
2019-01-02T06:03:55.989Z,98990.00
2019-01-02T06:06:23.598Z,98980.00
2019-01-02T06:08:51.140Z,98996.00
2019-01-02T06:11:18.688Z,98986.00
2019-01-02T06:13:46.258Z,98980.00
2019-01-02T06:16:13.758Z,98978.00
2019-01-02T06:18:41.359Z,98978.00
2019-01-02T06:21:09.362Z,98983.00
2019-01-02T06:23:36.821Z,98977.00
2019-01-02T06:26:04.369Z,98972.00
2019-01-02T06:28:32.029Z,98968.00
2019-01-02T06:30:59.722Z,98968.00
2019-01-02T06:33:27.580Z,98975.00
2019-01-02T06:35:55.309Z,98973.00
2019-01-02T06:38:22.801Z,98983.00
2019-01-02T06:40:50.059Z,98979.00
2019-01-02T06:43:17.571Z,98987.00
2019-01-02T06:45:45.350Z,98986.00
2019-01-02T06:48:12.764Z,98985.00
2019-01-02T06:50:40.322Z,98984.00
2019-01-02T06:53:07.920Z,98985.00
2019-01-02T06:55:35.391Z,98986.00
2019-01-02T06:58:03.042Z,98979.00
2019-01-02T07:00:30.550Z,98983.00
2019-01-02T07:02:58.229Z,98977.00
2019-01-02T07:05:25.739Z,98977.00
2019-01-02T07:07:53.030Z,98985.00
2019-01-02T07:10:20.503Z,98984.00
2019-01-02T07:12:47.899Z,98976.00
2019-01-02T07:15:15.262Z,98986.00
2019-01-02T07:17:42.842Z,98986.00
2019-01-02T07:20:12.611Z,98984.00
2019-01-02T07:22:40.322Z,98979.00
2019-01-02T07:25:08.606Z,98985.00
2019-01-02T07:27:36.419Z,98989.00
2019-01-02T07:30:15.040Z,99001.00
2019-01-02T07:32:42.592Z,98989.00
2019-01-02T07:35:31.132Z,98990.00
2019-01-02T07:38:18.851Z,98994.00
2019-01-02T07:41:03.851Z,98992.00
2019-01-02T07:43:54.644Z,98993.00
2019-01-02T07:46:37.510Z,99000.00
2019-01-02T07:49:35.130Z,98994.00
2019-01-02T07:52:19.780Z,98998.00
2019-01-02T07:55:29.431Z,98991.00
2019-01-02T07:58:32.782Z,98994.00
2019-01-02T08:01:25.170Z,98985.00
2019-01-02T08:04:06.911Z,98977.00
2019-01-02T08:07:06.901Z,98981.00
2019-01-02T08:09:42.851Z,98986.00
2019-01-02T08:12:28.680Z,98995.00
2019-01-02T08:15:53.113Z,98984.00
2019-01-02T08:18:47.754Z,98994.00
2019-01-02T08:21:55.029Z,98994.00
2019-01-02T08:25:10.832Z,98993.00
2019-01-02T08:28:07.541Z,99004.00
2019-01-02T08:31:10.240Z,99013.00
2019-01-02T08:34:13.870Z,99016.00
2019-01-02T08:37:27.590Z,99015.00
2019-01-02T08:40:24.259Z,99016.00
2019-01-02T08:43:06.161Z,99018.00
2019-01-02T08:46:00.469Z,99009.00
2019-01-02T08:48:48.339Z,99015.00
2019-01-02T08:51:48.460Z,99030.00
2019-01-02T08:54:48.031Z,99039.00
2019-01-02T08:57:26.550Z,99042.00
2019-01-02T09:00:08.199Z,99035.00
2019-01-02T09:03:03.560Z,99036.00
2019-01-02T09:05:51.619Z,99036.00
2019-01-02T09:08:46.771Z,99028.00
2019-01-02T09:11:26.373Z,99032.00
2019-01-02T09:14:31.579Z,99038.00
2019-01-02T09:17:19.599Z,99043.00
2019-01-02T09:20:04.580Z,99053.00
2019-01-02T09:23:01.869Z,99049.00
2019-01-02T09:25:46.078Z,99055.00
2019-01-02T09:28:34.300Z,99053.00
2019-01-02T09:31:42.541Z,99052.00
2019-01-02T09:34:27.172Z,99058.00
2019-01-02T09:37:35.022Z,99038.00
2019-01-02T09:40:23.919Z,99041.00
2019-01-02T09:43:24.603Z,99034.00
2019-01-02T09:46:17.225Z,99040.00
2019-01-02T09:48:55.660Z,99027.00
2019-01-02T09:52:13.900Z,99050.00
2019-01-02T09:55:15.469Z,99058.00
2019-01-02T09:58:26.199Z,99062.00
2019-01-02T10:01:08.201Z,99054.00
2019-01-02T10:03:56.360Z,99067.00
2019-01-02T10:07:11.980Z,99050.00
2019-01-02T10:10:17.951Z,99058.00
2019-01-02T10:13:22.529Z,99043.00
2019-01-02T10:16:04.301Z,99050.00
2019-01-02T10:18:49.259Z,99044.00
2019-01-02T10:21:50.971Z,99059.00
2019-01-02T10:25:01.731Z,99067.00
2019-01-02T10:28:03.539Z,99069.00
2019-01-02T10:30:52.234Z,99055.00
2019-01-02T10:34:02.710Z,99071.00
2019-01-02T10:36:56.710Z,99062.00
2019-01-02T10:40:07.906Z,99065.00
2019-01-02T10:43:01.552Z,99055.00
2019-01-02T10:46:08.189Z,99068.00
2019-01-02T10:49:06.659Z,99089.00
2019-01-02T10:51:56.270Z,99080.00
2019-01-02T10:54:59.601Z,99080.00
2019-01-02T10:57:55.160Z,99075.00
2019-01-02T11:00:50.419Z,99061.00
2019-01-02T11:03:35.319Z,99076.00
2019-01-02T11:06:26.291Z,99067.00
2019-01-02T11:09:10.751Z,99081.00
2019-01-02T11:12:06.089Z,99068.00
2019-01-02T11:14:53.832Z,99070.00
2019-01-02T11:17:46.340Z,99062.00
2019-01-02T11:20:45.181Z,99059.00
2019-01-02T11:23:29.799Z,99067.00
2019-01-02T11:26:38.060Z,99065.00
2019-01-02T11:29:25.329Z,99068.00
2019-01-02T11:32:18.230Z,99064.00
2019-01-02T11:35:02.791Z,99063.00
2019-01-02T11:37:54.032Z,99069.00
2019-01-02T11:40:48.479Z,99059.00
2019-01-02T11:44:10.808Z,99085.00
2019-01-02T11:46:38.470Z,99057.00
2019-01-02T11:49:06.310Z,99063.00
2019-01-02T11:51:33.821Z,99061.00
2019-01-02T11:54:01.449Z,99048.00
2019-01-02T11:56:29.731Z,99059.00
2019-01-02T11:58:57.670Z,99051.00
2019-01-02T12:01:25.199Z,99057.00
2019-01-02T12:03:52.681Z,99063.00
2019-01-02T12:06:20.401Z,99049.00
2019-01-02T12:08:47.941Z,99047.00
2019-01-02T12:11:16.040Z,99050.00
2019-01-02T12:13:43.745Z,99042.00
2019-01-02T12:16:11.399Z,99041.00
2019-01-02T12:18:39.314Z,99065.00
2019-01-02T12:21:06.421Z,99054.00
2019-01-02T12:23:34.010Z,99058.00
2019-01-02T12:26:01.642Z,99062.00
2019-01-02T12:28:29.461Z,99052.00
2019-01-02T12:30:57.582Z,99056.00
2019-01-02T12:33:24.829Z,99043.00
2019-01-02T12:35:52.590Z,99057.00
2019-01-02T12:38:19.983Z,99054.00
2019-01-02T12:40:47.978Z,99059.00
2019-01-02T12:43:15.450Z,99075.00
2019-01-02T12:45:42.888Z,99081.00
2019-01-02T12:48:10.729Z,99100.00
2019-01-02T12:50:38.190Z,99100.00
2019-01-02T12:53:05.699Z,99124.00
2019-01-02T12:55:33.226Z,99127.00
2019-01-02T12:58:00.651Z,99126.00
2019-01-02T13:00:33.304Z,99121.00
2019-01-02T13:03:32.790Z,99112.00
2019-01-02T13:06:30.100Z,99126.00
2019-01-02T13:09:19.670Z,99125.00
2019-01-02T13:12:18.421Z,99125.00
2019-01-02T13:15:09.629Z,99124.00
2019-01-02T13:17:48.791Z,99115.00
2019-01-02T13:20:53.780Z,99124.00
2019-01-02T13:23:29.672Z,99134.00
2019-01-02T13:26:17.690Z,99130.00
2019-01-02T13:29:11.860Z,99142.00
2019-01-02T13:32:05.902Z,99134.00
2019-01-02T13:34:56.852Z,99167.00
2019-01-02T13:37:41.581Z,99209.00
2019-01-02T13:40:40.440Z,99229.00
2019-01-02T13:43:22.112Z,99233.00
2019-01-02T13:45:55.070Z,99223.00
2019-01-02T13:48:53.330Z,99229.00
2019-01-02T13:51:21.630Z,99203.00
2019-01-02T13:53:48.990Z,99212.00
2019-01-02T13:56:16.540Z,99206.00
2019-01-02T13:58:43.979Z,99208.00
2019-01-02T14:01:11.550Z,99193.00
2019-01-02T14:03:39.179Z,99198.00
2019-01-02T14:06:06.552Z,99199.00
2019-01-02T14:08:34.233Z,99194.00
2019-01-02T14:11:01.781Z,99195.00
2019-01-02T14:13:29.562Z,99204.00
2019-01-02T14:15:57.149Z,99200.00
2019-01-02T14:18:24.752Z,99205.00
2019-01-02T14:20:52.160Z,99207.00
2019-01-02T14:23:19.920Z,99195.00
2019-01-02T14:25:47.621Z,99189.00
2019-01-02T14:28:15.211Z,99186.00
2019-01-02T14:30:42.612Z,99180.00
2019-01-02T14:33:10.181Z,99186.00
2019-01-02T14:35:38.032Z,99189.00
2019-01-02T14:38:05.481Z,99194.00
2019-01-02T14:40:33.016Z,99193.00
2019-01-02T14:43:00.800Z,99202.00
2019-01-02T14:45:28.160Z,99194.00
2019-01-02T14:47:55.451Z,99199.00
2019-01-02T14:50:23.020Z,99203.00
2019-01-02T14:52:50.822Z,99204.00
2019-01-02T14:55:18.351Z,99215.00
2019-01-02T14:57:45.869Z,99214.00
2019-01-02T15:00:13.303Z,99219.00
2019-01-02T15:02:40.999Z,99211.00
2019-01-02T15:05:08.890Z,99218.00
2019-01-02T15:07:36.501Z,99219.00
2019-01-02T15:10:08.731Z,99229.00
2019-01-02T15:12:36.881Z,99242.00
2019-01-02T15:15:07.998Z,99247.00
2019-01-02T15:17:35.500Z,99257.00
2019-01-02T15:20:06.889Z,99254.00
2019-01-02T15:22:34.511Z,99256.00
2019-01-02T15:25:02.253Z,99254.00
2019-01-02T15:27:30.159Z,99265.00
2019-01-02T15:29:57.830Z,99261.00
2019-01-02T15:32:25.333Z,99269.00
2019-01-02T15:34:53.000Z,99281.00
2019-01-02T15:37:21.130Z,99276.00
2019-01-02T15:39:48.731Z,99286.00
2019-01-02T15:42:16.425Z,99284.00
2019-01-02T15:44:44.070Z,99287.00
2019-01-02T15:47:12.139Z,99304.00
2019-01-02T15:49:39.611Z,99307.00
2019-01-02T15:52:07.299Z,99315.00
2019-01-02T15:54:34.941Z,99327.00
2019-01-02T15:57:02.290Z,99331.00
2019-01-02T15:59:30.026Z,99335.00
2019-01-02T16:01:57.401Z,99347.00
2019-01-02T16:04:25.329Z,99354.00
2019-01-02T16:06:52.701Z,99344.00
2019-01-02T16:09:20.129Z,99354.00
2019-01-02T16:11:47.740Z,99357.00
2019-01-02T16:14:17.039Z,99368.00
2019-01-02T16:16:44.655Z,99365.00
2019-01-02T16:19:12.326Z,99376.00
2019-01-02T16:21:39.971Z,99375.00
2019-01-02T16:24:07.440Z,99382.00
2019-01-02T16:26:34.970Z,99384.00
2019-01-02T16:29:02.469Z,99387.00
2019-01-02T16:31:30.039Z,99403.00
2019-01-02T16:33:57.479Z,99401.00
2019-01-02T16:36:24.747Z,99408.00
2019-01-02T16:38:52.239Z,99418.00
2019-01-02T16:41:19.801Z,99419.00
2019-01-02T16:43:47.330Z,99427.00
2019-01-02T16:46:15.023Z,99423.00
2019-01-02T16:48:42.559Z,99429.00
2019-01-02T16:51:10.263Z,99435.00
2019-01-02T16:53:38.030Z,99444.00
2019-01-02T16:56:05.623Z,99440.00
2019-01-02T16:58:33.302Z,99453.00
2019-01-02T17:01:01.109Z,99463.00
2019-01-02T17:03:28.671Z,99463.00
2019-01-02T17:05:56.489Z,99457.00
2019-01-02T17:08:24.071Z,99472.00
2019-01-02T17:10:52.251Z,99474.00
2019-01-02T17:13:19.861Z,99471.00
2019-01-02T17:15:47.329Z,99483.00
2019-01-02T17:18:14.940Z,99494.00
2019-01-02T17:20:42.712Z,99508.00
2019-01-02T17:23:10.251Z,99511.00
2019-01-02T17:25:38.019Z,99521.00
2019-01-02T17:28:05.630Z,99515.00
2019-01-02T17:30:33.432Z,99527.00
2019-01-02T17:33:01.010Z,99534.00
2019-01-02T17:35:28.222Z,99530.00
2019-01-02T17:37:56.438Z,99532.00
2019-01-02T17:40:23.927Z,99550.00
2019-01-02T17:42:51.709Z,99555.00
2019-01-02T17:45:19.319Z,99548.00
2019-01-02T17:47:46.721Z,99557.00
2019-01-02T17:50:14.773Z,99567.00
2019-01-02T17:52:42.419Z,99563.00
2019-01-02T17:55:09.993Z,99573.00
2019-01-02T17:57:37.638Z,99586.00
2019-01-02T18:00:09.790Z,99579.00
2019-01-02T18:02:37.311Z,99587.00
2019-01-02T18:05:05.010Z,99588.00
2019-01-02T18:07:32.632Z,99600.00
2019-01-02T18:10:00.252Z,99595.00
2019-01-02T18:12:27.892Z,99600.00
2019-01-02T18:14:55.660Z,99618.00
2019-01-02T18:17:23.413Z,99630.00
2019-01-02T18:19:51.960Z,99627.00
2019-01-02T18:22:19.460Z,99634.00
2019-01-02T18:24:49.909Z,99638.00
2019-01-02T18:27:17.319Z,99645.00
2019-01-02T18:29:44.941Z,99650.00
2019-01-02T18:32:13.062Z,99650.00
2019-01-02T18:34:40.681Z,99661.00
2019-01-02T18:37:08.280Z,99653.00
2019-01-02T18:39:35.790Z,99663.00
2019-01-02T18:42:03.791Z,99664.00
2019-01-02T18:44:31.360Z,99663.00
2019-01-02T18:46:59.353Z,99665.00
2019-01-02T18:49:26.910Z,99679.00
2019-01-02T18:51:54.490Z,99670.00
2019-01-02T18:54:21.990Z,99656.00
2019-01-02T18:56:49.671Z,99657.00
2019-01-02T18:59:17.192Z,99657.00
2019-01-02T19:01:44.711Z,99658.00
2019-01-02T19:04:12.081Z,99662.00
2019-01-02T19:06:39.502Z,99665.00
2019-01-02T19:09:07.681Z,99665.00
2019-01-02T19:11:35.293Z,99657.00
2019-01-02T19:14:02.861Z,99663.00
2019-01-02T19:16:30.551Z,99667.00
2019-01-02T19:18:58.341Z,99672.00
2019-01-02T19:21:26.110Z,99665.00
2019-01-02T19:23:53.693Z,99670.00
2019-01-02T19:26:21.250Z,99688.00
2019-01-02T19:28:49.193Z,99680.00
2019-01-02T19:31:16.470Z,99687.00
2019-01-02T19:33:44.009Z,99689.00
2019-01-02T19:36:11.660Z,99690.00
2019-01-02T19:38:41.169Z,99686.00
2019-01-02T19:41:08.775Z,99688.00
2019-01-02T19:43:36.510Z,99691.00
2019-01-02T19:46:04.750Z,99695.00
2019-01-02T19:48:32.322Z,99697.00
2019-01-02T19:51:00.204Z,99693.00
2019-01-02T19:53:28.010Z,99703.00
2019-01-02T19:55:55.490Z,99695.00
2019-01-02T19:58:23.003Z,99706.00
2019-01-02T20:00:50.471Z,99710.00
2019-01-02T20:03:17.992Z,99721.00
2019-01-02T20:05:45.351Z,99714.00
2019-01-02T20:08:12.893Z,99726.00
2019-01-02T20:10:40.542Z,99728.00
2019-01-02T20:13:08.232Z,99724.00
2019-01-02T20:15:35.782Z,99725.00
2019-01-02T20:18:03.271Z,99728.00
2019-01-02T20:20:30.388Z,99724.00
2019-01-02T20:22:57.883Z,99724.00
2019-01-02T20:25:25.481Z,99734.00
2019-01-02T20:27:53.041Z,99735.00
2019-01-02T20:30:20.366Z,99739.00
2019-01-02T20:32:48.093Z,99722.00
2019-01-02T20:35:15.794Z,99722.00
2019-01-02T20:37:43.240Z,99724.00
2019-01-02T20:40:10.932Z,99719.00
2019-01-02T20:42:38.331Z,99724.00
2019-01-02T20:45:06.000Z,99714.00
2019-01-02T20:47:33.581Z,99721.00
2019-01-02T20:50:01.001Z,99715.00
2019-01-02T20:52:28.812Z,99727.00
2019-01-02T20:54:56.804Z,99722.00
2019-01-02T20:57:24.313Z,99711.00
2019-01-02T20:59:51.984Z,99725.00
2019-01-02T21:02:19.486Z,99724.00
2019-01-02T21:04:46.963Z,99719.00
2019-01-02T21:07:14.454Z,99717.00
2019-01-02T21:09:41.780Z,99726.00
2019-01-02T21:12:09.235Z,99722.00
2019-01-02T21:14:36.860Z,99731.00
2019-01-02T21:17:04.310Z,99736.00
2019-01-02T21:19:31.841Z,99731.00
2019-01-02T21:21:59.865Z,99734.00
2019-01-02T21:24:27.862Z,99727.00
2019-01-02T21:26:55.304Z,99725.00
2019-01-02T21:29:22.651Z,99732.00
2019-01-02T21:31:50.211Z,99730.00
2019-01-02T21:34:17.650Z,99726.00
2019-01-02T21:36:45.301Z,99719.00
2019-01-02T21:39:12.551Z,99732.00
2019-01-02T21:41:40.440Z,99729.00
2019-01-02T21:44:08.010Z,99732.00
2019-01-02T21:46:35.732Z,99732.00
2019-01-02T21:49:03.290Z,99731.00
2019-01-02T21:51:30.538Z,99738.00
2019-01-02T21:53:57.961Z,99730.00
2019-01-02T21:56:25.651Z,99739.00
2019-01-02T21:58:53.552Z,99731.00
2019-01-02T22:01:21.150Z,99727.00
2019-01-02T22:03:48.640Z,99732.00
2019-01-02T22:06:16.091Z,99728.00
2019-01-02T22:08:43.651Z,99727.00
2019-01-02T22:11:11.131Z,99740.00
2019-01-02T22:13:38.302Z,99739.00
2019-01-02T22:16:05.953Z,99736.00
2019-01-02T22:18:33.821Z,99742.00
2019-01-02T22:21:01.250Z,99743.00
2019-01-02T22:23:28.541Z,99746.00
2019-01-02T22:25:56.472Z,99758.00
2019-01-02T22:28:24.250Z,99743.00
2019-01-02T22:30:51.592Z,99762.00
2019-01-02T22:33:19.020Z,99757.00
2019-01-02T22:35:46.599Z,99761.00
2019-01-02T22:38:14.130Z,99778.00
2019-01-02T22:40:41.372Z,99757.00
2019-01-02T22:43:08.761Z,99750.00
2019-01-02T22:45:36.320Z,99755.00
2019-01-02T22:48:03.991Z,99747.00
2019-01-02T22:50:31.777Z,99759.00
2019-01-02T22:52:59.183Z,99764.00
2019-01-02T22:55:27.112Z,99763.00
2019-01-02T22:57:54.461Z,99778.00
2019-01-02T23:00:30.060Z,99793.00
2019-01-02T23:03:02.440Z,99771.00
2019-01-02T23:05:49.981Z,99773.00
2019-01-02T23:08:25.080Z,99778.00
2019-01-02T23:10:54.501Z,99771.00
2019-01-02T23:13:23.751Z,99775.00
2019-01-02T23:15:56.000Z,99775.00
2019-01-02T23:18:40.700Z,99773.00
2019-01-02T23:21:26.810Z,99786.00
2019-01-02T23:24:12.470Z,99788.00
2019-01-02T23:26:41.921Z,99802.00
2019-01-02T23:29:13.890Z,99796.00
2019-01-02T23:31:43.172Z,99803.00
2019-01-02T23:34:15.390Z,99801.00
2019-01-02T23:36:50.684Z,99802.00
2019-01-02T23:39:20.220Z,99804.00
2019-01-02T23:42:06.201Z,99799.00
2019-01-02T23:44:47.540Z,99799.00
2019-01-02T23:47:16.960Z,99802.00
2019-01-02T23:49:46.283Z,99805.00
2019-01-02T23:52:18.610Z,99806.00
2019-01-02T23:55:05.900Z,99813.00
2019-01-02T23:57:40.703Z,99821.00
